createdAt,value
2019-02-25T00:01:43.523Z,26.60
2019-02-25T00:04:11.190Z,26.50
2019-02-25T00:06:38.786Z,24.90
2019-02-25T00:09:06.664Z,28.63
2019-02-25T00:11:35.631Z,23.90
2019-02-25T00:14:03.195Z,25.13
2019-02-25T00:16:32.517Z,26.70
2019-02-25T00:19:00.100Z,23.37
2019-02-25T00:21:27.611Z,24.43
2019-02-25T00:23:55.207Z,23.77
2019-02-25T00:26:22.812Z,27.80
2019-02-25T00:28:50.224Z,26.40
2019-02-25T00:31:17.806Z,25.93
2019-02-25T00:33:46.330Z,23.80
2019-02-25T00:36:14.538Z,25.67
2019-02-25T00:38:42.013Z,26.67
2019-02-25T00:41:09.600Z,21.63
2019-02-25T00:43:37.014Z,23.37
2019-02-25T00:46:04.591Z,28.73
2019-02-25T00:48:32.093Z,24.37
2019-02-25T00:50:59.473Z,23.53
2019-02-25T00:53:27.027Z,26.90
2019-02-25T00:55:54.467Z,27.33
2019-02-25T00:58:21.932Z,26.93
2019-02-25T01:00:49.421Z,24.43
2019-02-25T01:03:16.932Z,28.37
2019-02-25T01:05:44.503Z,21.00
2019-02-25T01:08:11.963Z,19.40
2019-02-25T01:10:39.508Z,20.40
2019-02-25T01:13:07.044Z,23.53
2019-02-25T01:15:34.630Z,25.33
2019-02-25T01:18:02.172Z,22.90
2019-02-25T01:20:29.674Z,23.50
2019-02-25T01:22:57.142Z,22.27
2019-02-25T01:25:24.554Z,26.23
2019-02-25T01:27:52.314Z,20.63
2019-02-25T01:30:20.471Z,23.70
2019-02-25T01:32:48.028Z,24.00
2019-02-25T01:35:15.430Z,22.00
2019-02-25T01:37:42.853Z,19.87
2019-02-25T01:40:10.397Z,21.47
2019-02-25T01:42:37.677Z,25.57
2019-02-25T01:45:06.796Z,23.70
2019-02-25T01:47:34.406Z,23.33
2019-02-25T01:50:01.943Z,24.77
2019-02-25T01:52:29.429Z,35.17
2019-02-25T01:54:56.984Z,18.67
2019-02-25T01:57:24.423Z,24.60
2019-02-25T01:59:51.940Z,22.40
2019-02-25T02:02:19.439Z,20.17
2019-02-25T02:04:47.028Z,26.13
2019-02-25T02:07:14.533Z,25.67
2019-02-25T02:09:42.134Z,21.57
2019-02-25T02:12:09.628Z,28.70
2019-02-25T02:14:37.299Z,22.70
2019-02-25T02:17:04.745Z,23.13
2019-02-25T02:19:32.364Z,21.30
2019-02-25T02:21:59.852Z,23.67
2019-02-25T02:24:28.327Z,18.20
2019-02-25T02:26:55.965Z,21.83
2019-02-25T02:29:23.497Z,22.07
2019-02-25T02:31:50.926Z,25.83
2019-02-25T02:34:18.430Z,20.17
2019-02-25T02:36:45.984Z,26.53
2019-02-25T02:39:13.555Z,25.30
2019-02-25T02:42:24.728Z,25.50
2019-02-25T02:44:54.862Z,26.00
2019-02-25T02:47:37.734Z,26.10
2019-02-25T02:50:08.083Z,22.37
2019-02-25T02:52:35.659Z,44.87
2019-02-25T02:55:03.380Z,24.60
2019-02-25T02:57:31.027Z,27.33
2019-02-25T02:59:58.503Z,21.20
2019-02-25T03:02:26.013Z,22.57
2019-02-25T03:04:53.471Z,22.03
2019-02-25T03:07:20.784Z,24.93
2019-02-25T03:09:48.232Z,22.50
2019-02-25T03:12:15.856Z,24.13
2019-02-25T03:14:43.371Z,23.30
2019-02-25T03:17:10.843Z,25.47
2019-02-25T03:19:38.283Z,23.17
2019-02-25T03:22:06.874Z,23.10
2019-02-25T03:24:34.299Z,27.00
2019-02-25T03:27:01.800Z,22.53
2019-02-25T03:29:29.160Z,21.50
2019-02-25T03:31:56.589Z,21.90
2019-02-25T03:34:24.146Z,22.30
2019-02-25T03:36:51.586Z,22.97
2019-02-25T03:39:18.986Z,23.00
2019-02-25T03:41:46.559Z,22.37
2019-02-25T03:44:13.945Z,20.80
2019-02-25T03:46:41.397Z,22.60
2019-02-25T03:49:08.949Z,22.47
2019-02-25T03:51:36.482Z,23.07
2019-02-25T03:54:03.947Z,18.27
2019-02-25T03:56:31.353Z,23.03
2019-02-25T03:59:01.923Z,25.47
2019-02-25T04:01:29.554Z,21.97
2019-02-25T04:03:57.098Z,22.63
2019-02-25T04:06:24.579Z,23.37
2019-02-25T04:08:52.107Z,22.60
2019-02-25T04:11:19.634Z,21.13
2019-02-25T04:13:47.019Z,21.37
2019-02-25T04:16:14.524Z,23.70
2019-02-25T04:18:42.018Z,23.30
2019-02-25T04:21:09.355Z,20.10
2019-02-25T04:23:36.854Z,20.97
2019-02-25T04:26:04.173Z,25.43
2019-02-25T04:28:32.713Z,20.93
2019-02-25T04:31:01.159Z,21.63
2019-02-25T04:33:28.725Z,24.33
2019-02-25T04:35:56.248Z,23.57
2019-02-25T04:38:23.774Z,22.07
2019-02-25T04:40:51.198Z,21.00
2019-02-25T04:43:19.803Z,19.13
2019-02-25T04:45:47.266Z,23.37
2019-02-25T04:48:15.123Z,20.23
2019-02-25T04:50:42.763Z,22.43
2019-02-25T04:53:10.166Z,24.37
2019-02-25T04:55:37.675Z,22.90
2019-02-25T04:58:06.385Z,21.93
2019-02-25T05:00:35.318Z,23.20
2019-02-25T05:03:02.887Z,18.57
2019-02-25T05:05:30.641Z,22.40
2019-02-25T05:07:57.939Z,21.57
2019-02-25T05:10:25.584Z,22.60
2019-02-25T05:12:58.145Z,23.30
2019-02-25T05:15:27.195Z,19.30
2019-02-25T05:17:54.641Z,22.77
2019-02-25T05:20:22.185Z,20.10
2019-02-25T05:22:49.744Z,19.00
2019-02-25T05:25:17.435Z,18.27
2019-02-25T05:27:44.863Z,26.13
2019-02-25T05:30:12.297Z,20.20
2019-02-25T05:32:39.822Z,25.13
2019-02-25T05:35:07.935Z,22.40
2019-02-25T05:37:35.358Z,18.97
2019-02-25T05:40:03.147Z,21.70
2019-02-25T05:42:30.682Z,22.23
2019-02-25T05:44:58.183Z,21.57
2019-02-25T05:47:25.802Z,19.97
2019-02-25T05:49:53.344Z,22.57
2019-02-25T05:52:21.200Z,22.17
2019-02-25T05:54:48.687Z,24.80
2019-02-25T05:57:16.141Z,19.93
2019-02-25T05:59:43.741Z,22.63
2019-02-25T06:02:11.282Z,21.40
2019-02-25T06:04:38.743Z,22.93
2019-02-25T06:07:06.226Z,14.93
2019-02-25T06:09:33.690Z,24.10
2019-02-25T06:12:01.212Z,23.07
2019-02-25T06:14:28.658Z,24.87
2019-02-25T06:16:56.280Z,24.70
2019-02-25T06:19:23.693Z,25.00
2019-02-25T06:21:51.154Z,31.03
2019-02-25T06:24:18.647Z,32.10
2019-02-25T06:26:46.082Z,33.00
2019-02-25T06:29:13.731Z,32.73
2019-02-25T06:31:41.312Z,29.03
2019-02-25T06:34:08.858Z,26.73
2019-02-25T06:36:36.369Z,25.53
2019-02-25T06:39:05.760Z,23.90
2019-02-25T06:41:33.402Z,24.03
2019-02-25T06:44:00.776Z,25.30
2019-02-25T06:46:29.933Z,25.67
2019-02-25T06:48:57.345Z,23.70
2019-02-25T06:51:24.848Z,25.40
2019-02-25T06:53:52.373Z,26.20
2019-02-25T06:56:19.899Z,28.70
2019-02-25T06:58:47.273Z,25.93
2019-02-25T07:01:14.780Z,25.30
2019-02-25T07:03:43.682Z,24.13
2019-02-25T07:06:24.878Z,27.90
2019-02-25T07:09:13.071Z,24.37
2019-02-25T07:11:58.783Z,23.60
2019-02-25T07:14:54.691Z,25.97
2019-02-25T07:17:53.610Z,23.40
2019-02-25T07:20:32.756Z,27.40
2019-02-25T07:23:08.226Z,25.57
2019-02-25T07:25:54.141Z,28.67
2019-02-25T07:28:39.818Z,24.60
2019-02-25T07:31:45.417Z,26.23
2019-02-25T07:34:35.269Z,24.50
2019-02-25T07:37:12.579Z,24.60
2019-02-25T07:40:11.642Z,28.17
2019-02-25T07:42:58.599Z,25.83
2019-02-25T07:45:44.459Z,28.80
2019-02-25T07:48:17.528Z,30.93
2019-02-25T07:51:13.393Z,25.50
2019-02-25T07:53:59.400Z,24.33
2019-02-25T07:56:45.621Z,31.50
2019-02-25T07:59:38.589Z,29.00
2019-02-25T08:02:16.187Z,27.00
2019-02-25T08:05:08.004Z,24.00
2019-02-25T08:07:55.615Z,28.80
2019-02-25T08:10:41.599Z,28.23
2019-02-25T08:13:26.975Z,23.80
2019-02-25T08:16:14.103Z,27.63
2019-02-25T08:19:03.638Z,23.37
2019-02-25T08:21:47.219Z,29.73
2019-02-25T08:24:30.661Z,27.63
2019-02-25T08:27:14.868Z,27.83
2019-02-25T08:29:48.793Z,29.00
2019-02-25T08:32:38.741Z,31.63
2019-02-25T08:35:19.601Z,24.60
2019-02-25T08:38:25.540Z,23.53
2019-02-25T08:41:29.034Z,23.43
2019-02-25T08:44:11.462Z,24.17
2019-02-25T08:46:52.899Z,24.30
2019-02-25T08:49:23.787Z,23.00
2019-02-25T08:51:51.193Z,21.90
2019-02-25T08:54:18.650Z,24.23
2019-02-25T08:56:46.127Z,24.50
2019-02-25T08:59:13.680Z,21.87
2019-02-25T09:01:41.154Z,22.00
2019-02-25T09:04:08.662Z,24.17
2019-02-25T09:06:36.205Z,24.23
2019-02-25T09:09:05.187Z,23.40
2019-02-25T09:11:34.051Z,22.33
2019-02-25T09:14:01.536Z,21.23
2019-02-25T09:16:29.064Z,24.10
2019-02-25T09:18:57.935Z,22.60
2019-02-25T09:21:31.661Z,25.40
2019-02-25T09:23:54.763Z,21.87
2019-02-25T09:26:22.397Z,23.47
2019-02-25T09:28:51.040Z,22.73
2019-02-25T09:31:18.420Z,18.97
2019-02-25T09:33:45.883Z,21.37
2019-02-25T09:36:14.625Z,19.77
2019-02-25T09:38:42.110Z,18.23
2019-02-25T09:41:09.601Z,23.57
2019-02-25T09:43:37.076Z,20.30
2019-02-25T09:46:04.527Z,21.20
2019-02-25T09:48:33.138Z,23.87
2019-02-25T09:51:01.266Z,22.50
2019-02-25T09:53:28.594Z,20.67
2019-02-25T09:55:56.034Z,18.27
2019-02-25T09:58:23.436Z,18.53
2019-02-25T10:00:50.843Z,17.33
2019-02-25T10:03:19.098Z,17.10
2019-02-25T10:05:46.555Z,19.43
2019-02-25T10:08:14.008Z,15.90
2019-02-25T10:10:41.716Z,18.00
2019-02-25T10:13:09.365Z,17.57
2019-02-25T10:15:36.852Z,17.17
2019-02-25T10:18:04.576Z,15.67
2019-02-25T10:20:32.118Z,17.43
2019-02-25T10:22:59.615Z,16.00
2019-02-25T10:25:27.051Z,16.67
2019-02-25T10:27:54.451Z,15.90
2019-02-25T10:30:23.025Z,14.83
2019-02-25T10:32:50.425Z,17.93
2019-02-25T10:35:18.566Z,18.20
2019-02-25T10:37:46.090Z,17.27
2019-02-25T10:40:15.509Z,19.07
2019-02-25T10:42:43.085Z,18.33
2019-02-25T10:45:13.504Z,19.93
2019-02-25T10:47:42.062Z,21.80
2019-02-25T10:50:10.946Z,18.63
2019-02-25T10:52:39.252Z,19.93
2019-02-25T10:55:12.969Z,24.60
2019-02-25T10:57:40.606Z,21.70
2019-02-25T11:00:11.733Z,22.23
2019-02-25T11:02:44.187Z,24.20
2019-02-25T11:05:09.447Z,23.43
2019-02-25T11:07:37.410Z,21.47
2019-02-25T11:10:25.889Z,19.07
2019-02-25T11:12:55.056Z,19.60
2019-02-25T11:15:22.714Z,21.17
2019-02-25T11:17:51.663Z,20.23
2019-02-25T11:20:19.527Z,22.57
2019-02-25T11:22:48.530Z,18.67
2019-02-25T11:25:16.215Z,19.30
2019-02-25T11:27:43.630Z,18.40
2019-02-25T11:30:12.141Z,20.43
2019-02-25T11:32:40.842Z,19.83
2019-02-25T11:35:09.083Z,19.30
2019-02-25T11:37:37.662Z,20.93
2019-02-25T11:40:06.234Z,20.27
2019-02-25T11:42:33.928Z,19.03
2019-02-25T11:45:04.461Z,19.53
2019-02-25T11:47:32.425Z,20.73
2019-02-25T11:49:59.774Z,19.83
2019-02-25T11:52:27.379Z,21.13
2019-02-25T11:54:55.015Z,19.70
2019-02-25T11:57:22.415Z,19.93
2019-02-25T11:59:49.931Z,19.53
2019-02-25T12:02:25.141Z,19.93
2019-02-25T12:04:48.499Z,18.47
2019-02-25T12:07:16.216Z,23.53
2019-02-25T12:09:43.702Z,20.20
2019-02-25T12:12:11.275Z,18.90
2019-02-25T12:14:39.861Z,19.57
2019-02-25T12:17:07.362Z,20.10
2019-02-25T12:19:34.803Z,20.30
2019-02-25T12:22:02.119Z,18.27
2019-02-25T12:24:29.539Z,20.30
2019-02-25T12:26:56.927Z,17.90
2019-02-25T12:29:24.488Z,16.23
2019-02-25T12:31:51.989Z,17.37
2019-02-25T12:34:19.450Z,15.53
2019-02-25T12:36:47.827Z,14.83
2019-02-25T12:39:15.519Z,16.47
2019-02-25T12:41:43.322Z,15.53
2019-02-25T12:44:10.789Z,16.20
2019-02-25T12:46:38.344Z,17.00
2019-02-25T12:49:05.784Z,20.87
2019-02-25T12:51:33.534Z,18.23
2019-02-25T12:54:00.931Z,18.17
2019-02-25T12:56:28.654Z,15.37
2019-02-25T12:58:56.179Z,15.93
2019-02-25T13:01:23.652Z,16.37
2019-02-25T13:03:50.990Z,14.20
2019-02-25T13:06:18.298Z,14.23
2019-02-25T13:08:45.732Z,13.40
2019-02-25T13:11:13.258Z,13.60
2019-02-25T13:13:40.779Z,13.37
2019-02-25T13:16:08.382Z,13.43
2019-02-25T13:18:35.912Z,13.63
2019-02-25T13:21:03.929Z,15.43
2019-02-25T13:23:31.698Z,14.80
2019-02-25T13:26:07.265Z,14.13
2019-02-25T13:28:30.643Z,15.40
2019-02-25T13:30:58.850Z,15.17
2019-02-25T13:33:27.039Z,15.20
2019-02-25T13:35:56.911Z,15.20
2019-02-25T13:38:23.939Z,15.83
2019-02-25T13:40:51.508Z,19.13
2019-02-25T13:43:19.078Z,16.83
2019-02-25T13:45:46.667Z,16.03
2019-02-25T13:48:15.322Z,16.23
2019-02-25T13:50:42.798Z,16.40
2019-02-25T13:53:10.427Z,16.63
2019-02-25T13:55:38.159Z,16.23
2019-02-25T13:58:05.753Z,16.73
2019-02-25T14:00:33.438Z,17.40
2019-02-25T14:03:03.197Z,16.30
2019-02-25T14:05:30.665Z,15.50
2019-02-25T14:07:58.371Z,14.43
2019-02-25T14:10:25.939Z,15.30
2019-02-25T14:12:53.450Z,14.77
2019-02-25T14:15:21.352Z,14.53
2019-02-25T14:17:49.023Z,13.50
2019-02-25T14:20:17.213Z,11.53
2019-02-25T14:22:44.788Z,13.70
2019-02-25T14:25:14.297Z,12.83
2019-02-25T14:27:41.736Z,13.60
2019-02-25T14:30:13.443Z,13.83
2019-02-25T14:32:41.071Z,10.90
2019-02-25T14:35:08.950Z,11.87
2019-02-25T14:37:36.723Z,10.93
2019-02-25T14:40:06.134Z,11.50
2019-02-25T14:42:36.371Z,10.93
2019-02-25T14:45:09.435Z,13.73
2019-02-25T14:47:39.561Z,14.73
2019-02-25T14:50:11.055Z,13.03
2019-02-25T14:52:38.821Z,13.43
2019-02-25T14:55:09.371Z,11.77
2019-02-25T14:57:38.209Z,12.70
2019-02-25T15:00:09.569Z,11.97
2019-02-25T15:02:41.039Z,11.73
2019-02-25T15:05:08.515Z,12.47
2019-02-25T15:07:36.055Z,12.95
2019-02-25T15:10:05.239Z,12.60
2019-02-25T15:12:35.771Z,14.37
2019-02-25T15:15:06.526Z,11.77
2019-02-25T15:17:34.161Z,11.97
2019-02-25T15:20:01.653Z,12.40
2019-02-25T15:22:32.025Z,13.30
2019-02-25T15:25:00.153Z,12.70
2019-02-25T15:27:27.709Z,12.57
2019-02-25T15:29:55.263Z,12.87
2019-02-25T15:32:22.760Z,14.73
2019-02-25T15:34:50.786Z,14.33
2019-02-25T15:37:19.734Z,13.90
2019-02-25T15:39:47.569Z,14.13
2019-02-25T15:42:17.608Z,15.13
2019-02-25T15:44:47.232Z,14.97
2019-02-25T15:47:15.101Z,14.37
2019-02-25T15:49:42.872Z,14.60
2019-02-25T15:52:10.666Z,15.80
2019-02-25T15:54:39.374Z,15.90
2019-02-25T15:57:07.703Z,16.60
2019-02-25T15:59:35.145Z,16.77
2019-02-25T16:02:03.489Z,15.10
2019-02-25T16:04:33.775Z,14.07
2019-02-25T16:07:04.451Z,15.30
2019-02-25T16:09:31.562Z,16.53
2019-02-25T16:12:00.988Z,14.70
2019-02-25T16:14:29.797Z,16.30
2019-02-25T16:16:57.603Z,16.27
2019-02-25T16:19:32.953Z,16.30
2019-02-25T16:21:58.208Z,15.27
2019-02-25T16:24:24.866Z,13.80
2019-02-25T16:26:53.706Z,17.37
2019-02-25T16:29:21.716Z,16.60
2019-02-25T16:31:51.029Z,16.20
2019-02-25T16:34:20.547Z,17.25
2019-02-25T16:36:51.480Z,17.90
2019-02-25T16:39:17.313Z,15.97
2019-02-25T16:41:45.739Z,17.03
2019-02-25T16:44:14.754Z,16.10
2019-02-25T16:46:44.459Z,15.80
2019-02-25T16:49:12.965Z,14.90
2019-02-25T16:51:40.591Z,16.40
2019-02-25T16:54:11.025Z,16.20
2019-02-25T16:56:38.189Z,20.07
2019-02-25T16:59:10.904Z,19.60
2019-02-25T17:01:37.539Z,17.80
2019-02-25T17:04:05.447Z,17.27
2019-02-25T17:06:34.281Z,19.27
2019-02-25T17:09:02.930Z,19.23
2019-02-25T17:11:32.506Z,22.23
2019-02-25T17:14:01.608Z,19.57
2019-02-25T17:16:29.378Z,23.07
2019-02-25T17:19:00.646Z,20.80
2019-02-25T17:21:28.332Z,20.13
2019-02-25T17:23:58.050Z,20.03
2019-02-25T17:26:25.635Z,21.53
2019-02-25T17:28:53.804Z,17.30
2019-02-25T17:31:21.369Z,23.40
2019-02-25T17:33:49.627Z,20.43
2019-02-25T17:36:18.993Z,23.53
2019-02-25T17:38:47.566Z,22.90
2019-02-25T17:41:16.683Z,21.93
2019-02-25T17:43:44.382Z,20.87
2019-02-25T17:46:12.779Z,20.50
2019-02-25T17:48:42.668Z,22.03
2019-02-25T17:51:10.266Z,22.57
2019-02-25T17:53:38.172Z,21.17
2019-02-25T17:56:05.733Z,21.97
2019-02-25T17:58:33.358Z,22.73
2019-02-25T18:01:02.907Z,27.10
2019-02-25T18:03:30.384Z,24.80
2019-02-25T18:05:58.970Z,23.03
2019-02-25T18:08:28.083Z,21.00
2019-02-25T18:10:56.934Z,22.60
2019-02-25T18:13:25.869Z,25.23
2019-02-25T18:15:55.670Z,22.47
2019-02-25T18:18:24.521Z,25.60
2019-02-25T18:20:53.609Z,26.30
2019-02-25T18:23:22.638Z,30.13
2019-02-25T18:25:50.151Z,30.53
2019-02-25T18:28:18.328Z,34.90
2019-02-25T18:30:46.966Z,32.63
2019-02-25T18:33:14.906Z,25.37
2019-02-25T18:35:43.453Z,21.43
2019-02-25T18:38:11.770Z,24.80
2019-02-25T18:40:41.347Z,21.90
2019-02-25T18:43:09.392Z,23.62
2019-02-25T18:45:38.404Z,20.40
2019-02-25T18:48:07.904Z,29.55
2019-02-25T18:50:35.566Z,26.10
2019-02-25T18:53:03.311Z,27.87
2019-02-25T18:55:33.966Z,26.50
2019-02-25T18:58:01.115Z,24.97
2019-02-25T19:00:35.271Z,22.53
2019-02-25T19:03:06.346Z,23.50
2019-02-25T19:05:35.089Z,23.70
2019-02-25T19:08:07.292Z,23.67
2019-02-25T19:10:34.820Z,20.50
2019-02-25T19:13:02.616Z,24.30
2019-02-25T19:15:30.226Z,22.17
2019-02-25T19:17:58.103Z,29.40
2019-02-25T19:20:26.933Z,24.57
2019-02-25T19:22:58.193Z,23.93
2019-02-25T19:25:25.744Z,24.13
2019-02-25T19:27:54.450Z,22.40
2019-02-25T19:30:24.801Z,24.70
2019-02-25T19:32:52.383Z,19.20
2019-02-25T19:35:21.927Z,23.63
2019-02-25T19:37:49.923Z,26.50
2019-02-25T19:40:19.548Z,27.57
2019-02-25T19:42:51.352Z,24.40
2019-02-25T19:45:17.823Z,23.30
2019-02-25T19:47:46.012Z,27.93
2019-02-25T19:50:14.157Z,20.97
2019-02-25T19:52:44.362Z,24.73
2019-02-25T19:55:13.039Z,30.13
2019-02-25T19:57:45.475Z,24.27
2019-02-25T20:00:17.801Z,25.63
2019-02-25T20:02:44.990Z,27.23
2019-02-25T20:05:14.243Z,26.70
2019-02-25T20:07:42.443Z,24.50
2019-02-25T20:10:11.653Z,25.90
2019-02-25T20:12:39.914Z,26.53
2019-02-25T20:15:11.340Z,19.97
2019-02-25T20:17:39.908Z,26.60
2019-02-25T20:20:11.006Z,53.37
2019-02-25T20:22:38.707Z,37.37
2019-02-25T20:25:08.187Z,42.53
2019-02-25T20:27:36.097Z,35.63
2019-02-25T20:30:05.462Z,32.67
2019-02-25T20:32:36.323Z,32.00
2019-02-25T20:37:53.754Z,31.67
2019-02-25T20:40:21.867Z,31.68
2019-02-25T20:42:51.214Z,32.03
2019-02-25T20:45:22.956Z,29.83
2019-02-25T20:47:50.126Z,30.47
2019-02-25T20:50:19.578Z,25.87
2019-02-25T20:52:47.186Z,31.20
2019-02-25T20:55:14.842Z,29.70
2019-02-25T20:57:42.960Z,26.63
2019-02-25T21:00:15.423Z,35.17
2019-02-25T21:02:43.185Z,27.10
2019-02-25T21:05:13.928Z,27.63
2019-02-25T21:07:40.170Z,29.20
2019-02-25T21:10:08.907Z,28.10
2019-02-25T21:12:36.939Z,29.70
2019-02-25T21:15:07.094Z,27.60
2019-02-25T21:17:35.579Z,29.10
2019-02-25T21:20:07.069Z,31.97
2019-02-25T21:22:36.355Z,26.17
2019-02-25T21:25:04.879Z,30.10
2019-02-25T21:27:37.024Z,27.10
2019-02-25T21:30:09.092Z,28.90
2019-02-25T21:32:37.462Z,24.27
2019-02-25T21:35:06.855Z,28.17
2019-02-25T21:37:34.524Z,33.43
2019-02-25T21:40:02.899Z,26.40
2019-02-25T21:42:31.531Z,29.20
2019-02-25T21:45:00.178Z,30.20
2019-02-25T21:47:29.162Z,32.93
2019-02-25T21:49:59.075Z,29.90
2019-02-25T21:52:27.386Z,32.90
2019-02-25T21:54:55.037Z,32.43
2019-02-25T21:57:22.450Z,27.70
2019-02-25T21:59:49.787Z,29.87
2019-02-25T22:02:17.498Z,29.60
2019-02-25T22:04:47.307Z,27.67
2019-02-25T22:07:17.123Z,31.37
2019-02-25T22:09:45.781Z,31.20
2019-02-25T22:12:13.355Z,30.60
2019-02-25T22:14:41.310Z,29.33
2019-02-25T22:17:10.674Z,33.80
2019-02-25T22:19:39.794Z,29.50
2019-02-25T22:22:07.362Z,33.53
2019-02-25T22:24:36.242Z,28.53
2019-02-25T22:27:03.975Z,29.40
2019-02-25T22:29:31.595Z,31.43
2019-02-25T22:31:59.668Z,29.60
2019-02-25T22:34:28.414Z,31.20
2019-02-25T22:36:56.070Z,26.77
2019-02-25T22:39:25.218Z,30.73
2019-02-25T22:41:52.839Z,32.20
2019-02-25T22:44:20.360Z,34.67
2019-02-25T22:46:48.320Z,23.20
2019-02-25T22:49:15.750Z,28.90
2019-02-25T22:51:43.063Z,29.27
2019-02-25T22:54:12.535Z,27.13
2019-02-25T22:56:39.657Z,31.83
2019-02-25T22:59:07.576Z,23.93
2019-02-25T23:01:37.003Z,26.03
2019-02-25T23:04:04.418Z,27.07
2019-02-25T23:06:31.806Z,24.93
2019-02-25T23:08:59.187Z,27.77
2019-02-25T23:11:26.852Z,28.50
2019-02-25T23:13:54.854Z,25.83
2019-02-25T23:16:24.947Z,27.37
2019-02-25T23:18:51.965Z,26.20
2019-02-25T23:21:23.958Z,29.73
2019-02-25T23:23:51.227Z,29.90
2019-02-25T23:26:19.879Z,30.00
2019-02-25T23:28:48.932Z,27.57
2019-02-25T23:31:17.316Z,27.10
2019-02-25T23:33:47.234Z,29.83
2019-02-25T23:36:17.129Z,29.60
2019-02-25T23:38:44.767Z,27.90
2019-02-25T23:41:14.415Z,27.97
2019-02-25T23:43:42.334Z,29.47
2019-02-25T23:46:11.143Z,28.17
2019-02-25T23:48:41.132Z,25.37
2019-02-25T23:51:08.027Z,31.40
2019-02-25T23:53:35.539Z,26.07
2019-02-25T23:56:03.087Z,30.03
2019-02-25T23:58:30.499Z,31.27
